Time;durP1;ratioP1;P1;durP2;ratioP2;P2;SDS_P1;SDS_P2;PMS_P1;PMS_P2;Temp;Humidity;BMP_temperature;BMP_pressure;BME280_temperature;BME280_humidity;BME280_pressure;Samples;Min_cycle;Max_cycle;Signal;HPM_P1;HPM_P2
2023/01/27 00:00:06;;;;;;;6.07;4.60;;;0.70;99.90;0.40;100971.00;;;;4782831;29;88931;-67
2023/01/27 00:02:32;;;;;;;7.63;4.87;;;0.80;99.90;0.40;100968.00;;;;4784164;29;87803;-68
2023/01/27 00:04:57;;;;;;;10.97;4.13;;;0.70;99.90;0.40;100975.00;;;;4780330;29;107958;-68
2023/01/27 00:07:23;;;;;;;5.10;4.43;;;0.80;99.90;0.40;100978.00;;;;4780215;29;117911;-69
2023/01/27 00:09:49;;;;;;;7.00;4.63;;;0.70;99.90;0.40;100977.00;;;;4783418;29;116820;-68
2023/01/27 00:15:10;;;;;;;6.80;3.97;;;0.80;99.90;0.40;100961.00;;;;4792663;29;87257;-68
2023/01/27 00:17:36;;;;;;;10.07;4.97;;;0.70;99.90;0.40;100962.00;;;;4781217;29;88941;-68
2023/01/27 00:20:03;;;;;;;8.33;4.60;;;0.90;99.90;0.40;100957.00;;;;4781102;29;110723;-68
2023/01/27 00:25:15;;;;;;;5.17;3.07;;;0.70;99.90;0.40;100953.00;;;;4778930;29;88011;-69
2023/01/27 00:27:42;;;;;;;6.10;5.07;;;0.70;99.90;0.40;100956.00;;;;4794089;29;107533;-70
2023/01/27 00:30:09;;;;;;;6.43;4.43;;;0.80;99.90;0.40;100950.00;;;;4780336;29;115309;-69
2023/01/27 00:35:19;;;;;;;7.33;4.10;;;0.80;99.90;0.40;100949.00;;;;4782003;29;88020;-69
2023/01/27 00:37:46;;;;;;;6.53;4.50;;;0.80;99.90;0.40;100954.00;;;;4780058;29;117730;-69
2023/01/27 00:40:14;;;;;;;10.20;4.00;;;0.80;99.90;0.40;100955.00;;;;4780296;29;87960;-69
2023/01/27 00:42:40;;;;;;;7.30;4.67;;;1.50;99.90;0.40;100957.00;;;;4765552;29;87935;-70
2023/01/27 00:47:51;;;;;;;7.83;4.03;;;0.70;99.90;0.40;100958.00;;;;4780542;29;89135;-69
2023/01/27 00:50:18;;;;;;;10.17;5.37;;;0.70;99.90;0.40;100952.00;;;;4783634;29;89124;-70
2023/01/27 00:52:44;;;;;;;9.67;7.00;;;0.70;99.90;0.40;100952.00;;;;4782026;29;96204;-69
2023/01/27 00:55:11;;;;;;;7.93;6.10;;;0.70;99.90;0.30;100951.00;;;;4780883;29;109556;-69
2023/01/27 00:57:37;;;;;;;8.20;5.20;;;0.70;99.90;0.30;100955.00;;;;4781644;29;88479;-69
2023/01/27 01:00:05;;;;;;;8.47;6.17;;;0.70;99.90;0.30;100955.00;;;;4779735;29;107180;-69
2023/01/27 01:02:31;;;;;;;6.17;4.67;;;0.70;99.90;0.30;100956.00;;;;4780866;29;103291;-69
2023/01/27 01:04:57;;;;;;;11.00;6.97;;;0.60;99.90;0.30;100947.00;;;;4779156;29;102688;-69
2023/01/27 01:07:23;;;;;;;6.87;4.97;;;0.60;99.90;0.40;100968.00;;;;4793133;29;88361;-69
2023/01/27 01:09:48;;;;;;;5.53;4.50;;;1.70;99.90;0.40;100958.00;;;;4783649;29;96402;-69
2023/01/27 01:12:14;;;;;;;9.00;5.97;;;0.80;99.90;0.40;100968.00;;;;4781674;29;109820;-69
2023/01/27 01:14:40;;;;;;;8.13;5.00;;;0.70;99.90;0.40;100964.00;;;;4778909;29;108250;-69
2023/01/27 01:17:05;;;;;;;7.13;4.57;;;0.70;99.90;0.40;100967.00;;;;4778076;29;101369;-69
2023/01/27 01:19:31;;;;;;;11.27;6.00;;;0.70;99.90;0.40;100970.00;;;;4778033;29;118850;-69
2023/01/27 01:21:57;;;;;;;7.33;5.70;;;0.80;99.90;0.40;100981.00;;;;4780574;29;109088;-68
2023/01/27 01:24:22;;;;;;;11.27;5.90;;;0.70;99.90;0.40;100973.00;;;;4781860;29;108884;-68
2023/01/27 01:26:48;;;;;;;7.53;5.47;;;0.70;99.90;0.40;100976.00;;;;4782401;29;87976;-68
2023/01/27 01:29:14;;;;;;;7.77;4.80;;;0.70;99.90;0.30;100968.00;;;;4782373;29;115597;-67
2023/01/27 01:31:39;;;;;;;8.90;5.90;;;0.70;99.90;0.30;100963.00;;;;4780195;29;109759;-68
2023/01/27 01:34:05;;;;;;;6.83;4.67;;;0.60;99.90;0.40;100969.00;;;;4778940;29;109017;-67
2023/01/27 01:36:31;;;;;;;9.17;5.53;;;0.70;99.90;0.40;100960.00;;;;4779331;29;116909;-69
2023/01/27 01:38:57;;;;;;;9.43;5.07;;;0.80;99.90;0.40;100963.00;;;;4777648;29;119529;-69
2023/01/27 01:41:23;;;;;;;7.23;5.47;;;0.70;99.90;0.40;100953.00;;;;4780012;29;87893;-69
2023/01/27 01:43:50;;;;;;;6.87;5.10;;;0.20;99.90;0.30;100949.00;;;;4778904;29;108479;-68
2023/01/27 01:46:17;;;;;;;7.53;4.33;;;0.70;99.90;0.40;100957.00;;;;4780998;29;109423;-68
2023/01/27 01:48:58;;;;;;;10.20;5.63;;;0.80;99.90;0.30;100949.00;;;;4781938;29;87822;-68
2023/01/27 01:51:58;;;;;;;7.20;4.60;;;0.70;99.90;0.30;100946.00;;;;4780714;29;100920;-67
2023/01/27 01:54:32;;;;;;;7.57;5.17;;;0.60;99.90;0.30;100957.00;;;;4758964;29;87943;-68
2023/01/27 01:57:14;;;;;;;7.30;5.27;;;0.80;99.90;0.30;100951.00;;;;4778630;29;102827;-67
2023/01/27 01:59:51;;;;;;;11.67;6.00;;;0.60;99.90;0.30;100957.00;;;;4781564;29;87860;-68
2023/01/27 02:02:21;;;;;;;8.27;4.80;;;0.70;99.90;0.30;100968.00;;;;4780987;29;89198;-68
2023/01/27 02:05:05;;;;;;;6.53;4.63;;;0.70;99.90;0.30;100961.00;;;;4793788;29;87841;-68
2023/01/27 02:07:56;;;;;;;10.10;5.33;;;0.70;99.90;0.30;100961.00;;;;4764696;29;90026;-68
2023/01/27 02:10:23;;;;;;;8.87;5.77;;;0.70;99.90;0.40;100973.00;;;;4793778;29;90902;-67
2023/01/27 02:12:49;;;;;;;8.70;5.93;;;0.70;99.90;0.40;100963.00;;;;4792997;29;100437;-67
2023/01/27 02:15:15;;;;;;;8.10;5.67;;;0.70;99.90;0.40;100964.00;;;;4780503;29;108813;-68
2023/01/27 02:17:41;;;;;;;9.13;5.63;;;0.80;99.90;0.40;100969.00;;;;4781107;29;99443;-69
2023/01/27 02:20:21;;;;;;;6.20;4.87;;;0.70;99.90;0.40;100976.00;;;;4780137;29;88731;-68
2023/01/27 02:23:21;;;;;;;8.47;5.70;;;0.80;99.90;0.30;100973.00;;;;4777198;29;101748;-68
2023/01/27 02:25:59;;;;;;;8.27;5.40;;;0.60;99.90;0.30;100985.00;;;;4781588;29;87830;-68
2023/01/27 02:28:27;;;;;;;7.40;5.13;;;0.70;99.90;0.30;100982.00;;;;4780233;29;90155;-68
2023/01/27 02:30:53;;;;;;;10.87;6.07;;;0.60;99.90;0.30;100980.00;;;;4778562;29;88827;-70
2023/01/27 02:33:19;;;;;;;6.50;5.23;;;0.70;99.90;0.30;100996.00;;;;4774300;29;88063;-68
2023/01/27 02:36:10;;;;;;;8.43;5.07;;;1.70;99.90;0.20;100991.00;;;;4781889;29;108578;-68
2023/01/27 02:38:43;;;;;;;6.57;4.93;;;0.60;99.90;0.30;100986.00;;;;4788574;29;108230;-68
2023/01/27 02:41:37;;;;;;;10.90;6.07;;;0.60;99.90;0.20;100998.00;;;;4795572;29;109976;-68
2023/01/27 02:44:03;;;;;;;11.13;6.07;;;1.10;99.90;0.30;100993.00;;;;4778561;29;87709;-69
2023/01/27 02:46:29;;;;;;;7.30;5.83;;;0.60;99.90;0.30;100996.00;;;;4778433;29;86991;-68
2023/01/27 02:48:55;;;;;;;7.53;5.10;;;0.60;99.90;0.30;100989.00;;;;4784002;29;115370;-68
2023/01/27 02:51:20;;;;;;;9.63;5.10;;;0.60;99.90;0.30;100998.00;;;;4785626;29;108312;-68
2023/01/27 02:53:46;;;;;;;9.17;5.00;;;0.60;99.90;0.30;100980.00;;;;4785304;29;89227;-68
2023/01/27 02:56:12;;;;;;;10.77;5.37;;;0.70;99.90;0.30;100990.00;;;;4783930;29;108976;-68
2023/01/27 02:58:38;;;;;;;8.93;5.63;;;0.60;99.90;0.30;100996.00;;;;4782047;29;99642;-68
2023/01/27 03:01:04;;;;;;;9.97;5.90;;;0.90;99.90;0.30;100990.00;;;;4783119;29;116719;-68
2023/01/27 03:03:29;;;;;;;8.97;5.57;;;0.70;99.90;0.30;100999.00;;;;4782495;29;109844;-68
2023/01/27 03:05:55;;;;;;;8.27;5.17;;;0.60;99.90;0.40;100992.00;;;;4784753;29;107689;-68
2023/01/27 03:08:21;;;;;;;6.97;5.67;;;0.70;99.90;0.30;100999.00;;;;4795173;29;87841;-69
2023/01/27 03:10:52;;;;;;;7.93;5.93;;;0.60;99.90;0.30;100985.00;;;;4782812;29;115754;-69
2023/01/27 03:13:22;;;;;;;7.23;5.17;;;0.70;99.90;0.40;100982.00;;;;4783580;29;88075;-68
2023/01/27 03:18:34;;;;;;;12.40;4.53;;;0.60;99.90;0.40;100984.00;;;;4783324;29;88809;-70
2023/01/27 03:21:05;;;;;;;8.53;5.73;;;0.70;99.90;0.40;100984.00;;;;4779236;29;91266;-69
2023/01/27 03:23:35;;;;;;;7.10;5.53;;;0.70;99.90;0.40;100989.00;;;;4795008;29;87967;-69
2023/01/27 03:26:05;;;;;;;10.73;5.30;;;0.60;99.90;0.40;100989.00;;;;4783612;29;87853;-68
2023/01/27 03:28:31;;;;;;;15.33;5.83;;;0.70;99.90;0.40;100997.00;;;;4782685;29;88275;-68
2023/01/27 03:31:18;;;;;;;8.77;5.50;;;0.80;99.90;0.30;100995.00;;;;4783201;29;117598;-69
2023/01/27 03:33:46;;;;;;;9.93;5.60;;;0.70;99.90;0.40;100995.00;;;;4784015;29;88100;-68
2023/01/27 03:47:10;;;;;;;9.33;5.67;;;0.60;99.90;0.40;101021.00;;;;4778249;29;87920;-69
2023/01/27 03:49:35;;;;;;;9.87;5.97;;;0.80;99.90;0.40;101016.00;;;;4780064;29;89286;-69
2023/01/27 03:52:01;;;;;;;5.07;4.60;;;0.70;99.90;0.40;101020.00;;;;4782161;29;117440;-68
2023/01/27 03:54:27;;;;;;;8.90;6.00;;;0.80;99.90;0.40;101014.00;;;;4781199;29;110088;-69
2023/01/27 03:56:52;;;;;;;9.07;5.30;;;0.70;99.90;0.40;101013.00;;;;4782877;29;88054;-68
2023/01/27 03:59:18;;;;;;;11.03;6.33;;;0.90;99.90;0.40;101015.00;;;;4777931;29;116972;-68
2023/01/27 04:01:44;;;;;;;7.83;5.40;;;0.70;99.90;0.40;101012.00;;;;4781455;29;116826;-68
2023/01/27 04:07:01;;;;;;;6.03;4.43;;;0.70;99.90;0.40;101011.00;;;;4779397;29;87881;-69
2023/01/27 04:09:35;;;;;;;6.17;5.40;;;0.80;99.90;0.40;101021.00;;;;4783478;29;88916;-68
2023/01/27 04:12:04;;;;;;;11.67;7.20;;;0.80;99.90;0.40;101003.00;;;;4781774;29;90347;-68
2023/01/27 04:14:37;;;;;;;9.63;6.53;;;0.70;99.90;0.40;101021.00;;;;4779175;29;87796;-69
2023/01/27 04:17:15;;;;;;;11.53;6.93;;;0.70;99.90;0.30;101013.00;;;;4780344;29;87898;-67
2023/01/27 04:19:40;;;;;;;13.23;7.77;;;0.70;99.90;0.30;101013.00;;;;4792109;29;88765;-69
2023/01/27 04:22:08;;;;;;;9.50;6.30;;;0.60;99.90;0.20;101016.00;;;;4781705;29;118196;-68
2023/01/27 04:24:33;;;;;;;11.23;6.23;;;0.60;99.90;0.20;101008.00;;;;4778397;29;102310;-68
2023/01/27 04:27:11;;;;;;;10.20;6.30;;;0.60;99.90;0.20;101014.00;;;;4782282;29;87296;-68
2023/01/27 04:29:39;;;;;;;9.07;4.83;;;0.50;99.90;0.20;101010.00;;;;4779289;29;88077;-67
2023/01/27 04:32:08;;;;;;;8.93;5.17;;;0.60;99.90;0.20;101013.00;;;;4781160;29;88058;-69
2023/01/27 04:34:34;;;;;;;10.23;6.27;;;0.50;99.90;0.20;101023.00;;;;4780630;29;88861;-69
2023/01/27 04:37:02;;;;;;;8.73;5.93;;;0.50;99.90;0.20;101003.00;;;;4782741;29;88106;-69
2023/01/27 04:39:27;;;;;;;8.00;5.47;;;0.60;99.90;0.20;101015.00;;;;4779152;29;88082;-68
2023/01/27 04:41:55;;;;;;;9.07;6.27;;;0.50;99.90;0.20;101008.00;;;;4781971;29;117593;-68
2023/01/27 04:44:22;;;;;;;5.80;4.77;;;0.60;99.90;0.20;101004.00;;;;4779333;29;88021;-68
2023/01/27 04:46:48;;;;;;;9.63;6.70;;;0.50;99.90;0.20;101017.00;;;;4780676;29;87777;-69
2023/01/27 04:49:15;;;;;;;7.00;4.87;;;0.50;99.90;0.20;101020.00;;;;4780425;29;88156;-68
2023/01/27 04:51:40;;;;;;;10.23;5.80;;;0.50;99.90;0.20;101019.00;;;;4783857;29;94118;-68
2023/01/27 04:54:06;;;;;;;8.33;5.90;;;0.60;99.90;0.20;101015.00;;;;4783009;29;96710;-69
2023/01/27 04:56:43;;;;;;;7.00;5.47;;;0.60;99.90;0.20;101031.00;;;;4783274;29;104187;-70
2023/01/27 04:59:15;;;;;;;8.30;6.03;;;0.50;99.90;0.20;101030.00;;;;4780431;29;90115;-69
2023/01/27 05:01:41;;;;;;;5.87;3.77;;;0.60;99.90;0.20;101017.00;;;;4794957;29;88161;-67
2023/01/27 05:04:07;;;;;;;6.70;4.27;;;0.50;99.90;0.20;101016.00;;;;4782251;29;90132;-67
2023/01/27 05:06:32;;;;;;;3.97;3.23;;;0.50;99.90;0.20;101014.00;;;;4779367;29;99434;-67
2023/01/27 05:08:58;;;;;;;7.67;5.00;;;0.50;99.90;0.20;101017.00;;;;4776639;29;105538;-69
2023/01/27 05:11:24;;;;;;;8.60;6.17;;;0.50;99.90;0.20;101018.00;;;;4780274;29;87768;-68
2023/01/27 05:13:49;;;;;;;8.30;4.90;;;0.50;99.90;0.20;101013.00;;;;4765087;29;88175;-68
2023/01/27 05:16:22;;;;;;;5.83;4.40;;;-0.40;99.90;0.20;101018.00;;;;4777227;29;108167;-68
2023/01/27 05:18:49;;;;;;;6.73;4.47;;;0.50;99.90;0.20;101020.00;;;;4773824;29;89161;-68
2023/01/27 05:21:19;;;;;;;9.23;4.80;;;0.40;99.90;0.20;101024.00;;;;4778664;29;110166;-67
2023/01/27 05:23:45;;;;;;;7.53;5.00;;;0.50;99.90;0.20;101030.00;;;;4780901;29;104531;-68
2023/01/27 05:26:23;;;;;;;6.57;5.00;;;1.40;99.90;0.10;101036.00;;;;4782001;29;88878;-70
2023/01/27 05:28:51;;;;;;;7.70;4.97;;;0.40;99.90;0.10;101031.00;;;;4775893;29;87975;-68
2023/01/27 05:31:24;;;;;;;7.30;4.53;;;0.80;99.90;0.10;101031.00;;;;4782428;29;88389;-67
2023/01/27 05:33:53;;;;;;;7.47;4.53;;;0.40;99.90;0.10;101038.00;;;;4780148;29;88152;-67
2023/01/27 05:36:23;;;;;;;8.20;4.90;;;0.50;99.90;0.10;101040.00;;;;4782442;29;87950;-68
2023/01/27 05:38:49;;;;;;;7.33;5.10;;;0.40;99.90;0.10;101031.00;;;;4783043;29;88519;-68
2023/01/27 05:41:16;;;;;;;5.23;3.77;;;0.50;99.90;0.10;101043.00;;;;4781295;29;117397;-68
2023/01/27 05:43:44;;;;;;;8.13;4.53;;;0.60;99.90;0.10;101046.00;;;;4778001;29;104989;-68
2023/01/27 05:46:19;;;;;;;6.83;4.10;;;0.50;99.90;0.10;101048.00;;;;4781746;29;87803;-70
2023/01/27 05:48:49;;;;;;;7.83;4.57;;;0.50;99.90;0.10;101041.00;;;;4779152;29;107726;-67
2023/01/27 05:51:16;;;;;;;7.10;5.10;;;0.40;99.90;0.10;101039.00;;;;4795745;29;87839;-67
2023/01/27 05:53:43;;;;;;;6.00;4.40;;;0.50;99.90;0.20;101033.00;;;;4782115;29;87909;-68
2023/01/27 05:56:12;;;;;;;6.03;4.80;;;0.40;99.90;0.20;101051.00;;;;4781702;29;100506;-69
2023/01/27 05:58:38;;;;;;;5.87;4.03;;;0.50;99.90;0.20;101045.00;;;;4776807;29;107770;-69
2023/01/27 06:01:18;;;;;;;9.37;4.10;;;0.50;99.90;0.20;101050.00;;;;4168836;29;10001430;-68
2023/01/27 06:03:45;;;;;;;7.63;5.10;;;0.50;99.90;0.20;101054.00;;;;4774975;29;88157;-69
2023/01/27 06:06:13;;;;;;;6.13;4.33;;;0.50;99.90;0.20;101044.00;;;;4757895;29;105348;-70
2023/01/27 06:08:39;;;;;;;7.23;5.33;;;1.60;99.90;0.20;101048.00;;;;4768337;29;88172;-70
2023/01/27 06:11:06;;;;;;;9.90;5.47;;;0.40;99.90;0.20;101058.00;;;;4778546;29;88424;-69
2023/01/27 06:13:37;;;;;;;6.83;4.43;;;0.60;99.90;0.20;101063.00;;;;4775547;29;88981;-69
2023/01/27 06:16:06;;;;;;;8.77;3.97;;;0.50;99.90;0.20;101052.00;;;;4791233;29;89145;-68
2023/01/27 06:18:32;;;;;;;6.67;3.80;;;0.60;99.90;0.20;101050.00;;;;4781374;29;87819;-69
2023/01/27 06:21:03;;;;;;;7.33;5.10;;;0.50;99.90;0.20;101064.00;;;;4782184;29;117533;-69
2023/01/27 06:23:29;;;;;;;9.70;5.43;;;0.70;99.90;0.20;101069.00;;;;4780934;29;110068;-69
2023/01/27 06:25:59;;;;;;;6.73;4.67;;;0.60;99.90;0.20;101065.00;;;;4794573;29;87974;-69
2023/01/27 06:28:24;;;;;;;8.30;5.03;;;0.40;99.90;0.20;101060.00;;;;4784038;29;100438;-70
2023/01/27 06:30:51;;;;;;;9.80;6.10;;;0.50;99.90;0.20;101059.00;;;;4784766;29;117827;-68
2023/01/27 06:33:17;;;;;;;12.70;6.67;;;0.60;99.90;0.20;101075.00;;;;4782994;29;87887;-70
2023/01/27 06:35:43;;;;;;;6.47;4.63;;;0.50;99.90;0.20;101072.00;;;;4783315;29;111035;-69
2023/01/27 06:38:13;;;;;;;9.40;5.90;;;0.50;99.90;0.20;101080.00;;;;4779338;29;88890;-69
2023/01/27 06:40:39;;;;;;;7.20;5.97;;;0.50;99.90;0.20;101079.00;;;;4783931;29;89341;-69
2023/01/27 06:43:12;;;;;;;8.40;5.13;;;0.50;99.90;0.20;101071.00;;;;4781289;29;117049;-69
2023/01/27 06:45:38;;;;;;;11.63;6.90;;;0.50;99.90;0.20;101074.00;;;;4781144;29;88067;-70
2023/01/27 06:48:04;;;;;;;11.53;7.73;;;0.50;99.90;0.20;101081.00;;;;4778941;29;108905;-69
2023/01/27 06:50:30;;;;;;;9.17;5.70;;;0.50;99.90;0.20;101087.00;;;;4781222;29;96370;-69
2023/01/27 06:53:01;;;;;;;10.10;5.47;;;0.80;99.90;0.20;101087.00;;;;4782666;29;117376;-69
2023/01/27 06:55:27;;;;;;;9.13;5.27;;;0.60;99.90;0.20;101083.00;;;;4783691;29;87331;-70
2023/01/27 06:57:53;;;;;;;9.03;5.50;;;0.50;99.90;0.20;101084.00;;;;4783237;29;87864;-69
2023/01/27 07:00:19;;;;;;;9.97;5.43;;;0.60;99.90;0.20;101096.00;;;;4781008;29;115872;-69
2023/01/27 07:02:45;;;;;;;9.60;5.67;;;0.50;99.90;0.20;101082.00;;;;4783561;29;110638;-70
2023/01/27 07:05:11;;;;;;;7.27;5.73;;;0.70;99.90;0.30;101082.00;;;;4784486;29;109219;-70
2023/01/27 07:07:37;;;;;;;10.97;6.07;;;0.50;99.90;0.30;101087.00;;;;4780241;29;87762;-68
2023/01/27 07:10:04;;;;;;;11.80;5.57;;;0.60;99.90;0.30;101089.00;;;;4779970;29;88722;-69
2023/01/27 07:12:30;;;;;;;9.07;5.93;;;0.50;99.90;0.30;101086.00;;;;4780932;29;89473;-69
2023/01/27 07:14:55;;;;;;;9.10;6.17;;;0.50;99.90;0.30;101091.00;;;;4784267;29;87892;-69
2023/01/27 07:17:21;;;;;;;9.00;6.43;;;0.60;99.90;0.30;101096.00;;;;4781059;29;109318;-69
2023/01/27 07:19:46;;;;;;;11.47;7.27;;;0.60;99.90;0.30;101092.00;;;;4781810;29;117384;-69
2023/01/27 07:22:12;;;;;;;17.57;7.53;;;0.50;99.90;0.30;101106.00;;;;4784858;29;116656;-69
2023/01/27 07:24:38;;;;;;;10.90;6.53;;;0.70;99.90;0.30;101104.00;;;;4784845;29;87949;-69
2023/01/27 07:27:03;;;;;;;13.87;8.10;;;0.60;99.90;0.30;101096.00;;;;4782318;29;107034;-69
2023/01/27 07:29:29;;;;;;;13.87;7.70;;;0.60;99.90;0.30;101089.00;;;;4780836;29;117655;-69
2023/01/27 07:31:55;;;;;;;10.07;7.90;;;0.70;99.90;0.40;101095.00;;;;4778608;29;117364;-69
2023/01/27 07:34:20;;;;;;;13.63;7.07;;;0.70;99.90;0.40;101102.00;;;;4780359;29;110362;-69
2023/01/27 07:36:46;;;;;;;13.10;7.20;;;0.70;99.90;0.40;101111.00;;;;4784554;29;108482;-69
2023/01/27 07:39:11;;;;;;;13.77;7.50;;;0.80;99.90;0.40;101101.00;;;;4780886;29;118147;-69
2023/01/27 07:41:37;;;;;;;15.30;8.37;;;0.70;99.90;0.50;101107.00;;;;4783472;29;116961;-68
2023/01/27 07:44:03;;;;;;;12.27;8.77;;;0.70;99.90;0.50;101105.00;;;;4781553;29;86976;-69
2023/01/27 07:46:29;;;;;;;9.40;6.97;;;0.80;99.90;0.50;101114.00;;;;4782206;29;99832;-69
2023/01/27 07:48:54;;;;;;;12.70;8.13;;;0.70;99.90;0.50;101115.00;;;;4780764;29;117786;-69
2023/01/27 07:51:20;;;;;;;10.70;7.47;;;0.90;99.90;0.50;101106.00;;;;4781300;29;108666;-69
2023/01/27 07:53:46;;;;;;;11.37;5.80;;;0.80;99.90;0.50;101116.00;;;;4783110;29;87797;-69
2023/01/27 07:56:12;;;;;;;13.27;7.97;;;0.80;99.90;0.50;101126.00;;;;4794796;29;105022;-70
2023/01/27 07:58:38;;;;;;;13.67;6.87;;;0.80;99.90;0.50;101117.00;;;;4779114;29;117678;-69
2023/01/27 08:01:09;;;;;;;13.20;7.73;;;0.80;99.90;0.50;101131.00;;;;4780634;29;88751;-70
2023/01/27 08:03:36;;;;;;;12.00;6.57;;;0.80;99.90;0.50;101130.00;;;;4784491;29;87992;-69
2023/01/27 08:06:10;;;;;;;11.17;7.33;;;0.80;99.90;0.50;101137.00;;;;4782129;29;87874;-70
2023/01/27 08:08:36;;;;;;;12.50;7.73;;;0.90;99.90;0.50;101139.00;;;;4782099;29;98939;-69
2023/01/27 08:11:07;;;;;;;12.87;7.73;;;0.80;99.90;0.50;101142.00;;;;4782102;29;87890;-69
2023/01/27 08:13:34;;;;;;;14.03;6.67;;;0.90;99.90;0.60;101140.00;;;;4780374;29;87978;-68
2023/01/27 08:16:04;;;;;;;15.60;8.63;;;0.90;99.90;0.60;101143.00;;;;4784278;29;88816;-69
2023/01/27 08:18:29;;;;;;;14.07;7.87;;;0.90;99.90;0.60;101140.00;;;;4781615;29;88876;-69
2023/01/27 08:21:00;;;;;;;12.57;9.10;;;0.90;99.90;0.60;101142.00;;;;4783255;29;88861;-67
2023/01/27 08:23:25;;;;;;;13.73;8.30;;;0.90;99.90;0.60;101155.00;;;;4782229;29;87863;-67
2023/01/27 08:25:57;;;;;;;16.90;9.47;;;1.00;99.90;0.60;101145.00;;;;4779685;29;108088;-69
2023/01/27 08:28:25;;;;;;;16.90;8.10;;;0.90;99.90;0.70;101158.00;;;;4781460;29;88932;-68
2023/01/27 08:30:51;;;;;;;17.73;8.90;;;1.00;99.90;0.70;101158.00;;;;4781980;29;96383;-69
2023/01/27 08:33:22;;;;;;;13.70;8.23;;;0.90;99.90;0.70;101160.00;;;;4782709;29;87103;-68
2023/01/27 08:35:49;;;;;;;13.43;7.10;;;1.10;99.90;0.70;101155.00;;;;4783209;29;87801;-67
2023/01/27 08:38:18;;;;;;;10.30;6.93;;;1.00;99.90;0.70;101166.00;;;;4780061;29;88905;-67
2023/01/27 08:40:45;;;;;;;11.77;6.57;;;1.00;99.90;0.70;101154.00;;;;4779667;29;89039;-68
2023/01/27 08:43:14;;;;;;;15.50;7.37;;;1.00;99.90;0.70;101158.00;;;;4779670;29;87736;-68
2023/01/27 08:45:40;;;;;;;15.03;9.20;;;1.00;99.90;0.70;101157.00;;;;4780283;29;88031;-68
2023/01/27 08:48:05;;;;;;;16.43;8.17;;;1.10;99.90;0.70;101163.00;;;;4780385;29;118449;-68
2023/01/27 08:50:32;;;;;;;10.67;8.20;;;1.00;99.90;0.70;101174.00;;;;4780449;29;117795;-68
2023/01/27 08:52:58;;;;;;;15.87;8.20;;;1.00;99.90;0.80;101173.00;;;;4782014;29;110330;-68
2023/01/27 08:55:29;;;;;;;13.60;7.37;;;1.10;99.90;0.80;101173.00;;;;4781953;29;89537;-68
2023/01/27 08:57:55;;;;;;;12.23;7.60;;;0.90;99.90;0.80;101167.00;;;;4779800;29;87577;-69
2023/01/27 09:00:21;;;;;;;12.13;7.03;;;1.10;99.90;0.80;101168.00;;;;4777408;29;116840;-68
2023/01/27 09:02:47;;;;;;;11.67;8.07;;;1.20;99.90;0.90;101166.00;;;;4778684;29;102874;-70
2023/01/27 09:05:13;;;;;;;11.93;6.97;;;1.10;99.90;0.90;101169.00;;;;4761262;29;88799;-69
2023/01/27 09:07:39;;;;;;;16.20;7.83;;;1.20;99.90;0.90;101166.00;;;;4782638;29;108769;-70
2023/01/27 09:10:05;;;;;;;14.43;7.90;;;1.20;99.90;1.00;101179.00;;;;4781998;29;118115;-69
2023/01/27 09:12:31;;;;;;;12.07;7.50;;;1.30;99.90;1.00;101177.00;;;;4780398;29;99472;-69
2023/01/27 09:14:57;;;;;;;10.63;7.77;;;1.30;99.90;1.00;101178.00;;;;4780194;29;109253;-68
2023/01/27 09:17:24;;;;;;;12.53;7.33;;;1.30;99.90;1.10;101185.00;;;;4781499;29;90762;-67
2023/01/27 09:19:50;;;;;;;14.53;7.30;;;1.30;99.90;1.10;101182.00;;;;4780963;29;87716;-68
2023/01/27 09:22:16;;;;;;;13.80;8.00;;;1.40;99.90;1.20;101178.00;;;;4779724;29;86988;-67
2023/01/27 09:24:41;;;;;;;13.77;7.33;;;1.40;99.90;1.20;101167.00;;;;4794295;29;88201;-69
2023/01/27 09:27:07;;;;;;;10.60;7.40;;;1.60;99.90;1.20;101177.00;;;;4777437;29;117980;-68
2023/01/27 09:29:33;;;;;;;9.70;7.43;;;1.50;99.90;1.30;101173.00;;;;4780171;29;115306;-68
2023/01/27 09:31:58;;;;;;;17.10;8.50;;;0.80;99.90;1.30;101167.00;;;;4780145;29;89119;-68
2023/01/27 09:34:24;;;;;;;11.57;7.70;;;1.50;99.90;1.40;101176.00;;;;4778996;29;109423;-69
2023/01/27 09:37:08;;;;;;;9.47;6.70;;;1.60;99.90;1.40;101168.00;;;;4780463;29;118819;-68
2023/01/27 09:39:38;;;;;;;11.70;7.40;;;1.70;99.90;1.50;101175.00;;;;4777850;29;111312;-69
2023/01/27 09:42:36;;;;;;;9.27;6.37;;;1.60;99.90;1.50;101165.00;;;;4789890;29;99585;-68
2023/01/27 09:45:40;;;;;;;8.20;5.90;;;1.80;99.90;1.50;101184.00;;;;4780459;29;98920;-68
2023/01/27 09:48:32;;;;;;;10.70;7.63;;;1.70;99.90;1.50;101171.00;;;;4793371;29;107313;-67
2023/01/27 09:51:18;;;;;;;11.20;6.67;;;1.70;99.90;1.50;101172.00;;;;4793740;29;100793;-69
2023/01/27 09:54:09;;;;;;;11.77;7.87;;;1.80;99.90;1.60;101171.00;;;;4782126;29;87945;-69
2023/01/27 09:56:53;;;;;;;8.37;6.27;;;1.90;99.90;1.60;101176.00;;;;4783489;29;100004;-69
2023/01/27 10:00:15;;;;;;;9.07;5.70;;;1.90;99.90;1.60;101181.00;;;;4783728;29;87869;-69
2023/01/27 10:03:16;;;;;;;11.73;7.83;;;2.00;99.90;1.70;101184.00;;;;4749641;29;88215;-69
2023/01/27 10:06:03;;;;;;;11.17;8.33;;;1.90;99.90;1.70;101179.00;;;;4782797;29;87819;-69
2023/01/27 10:08:56;;;;;;;10.70;6.23;;;2.10;99.90;1.80;101170.00;;;;4782894;29;87999;-69
2023/01/27 10:11:47;;;;;;;12.43;6.73;;;2.00;99.90;1.80;101176.00;;;;4785521;29;87985;-69
2023/01/27 10:14:46;;;;;;;9.70;7.00;;;2.10;99.90;1.90;101186.00;;;;4783213;29;99017;-69
2023/01/27 10:17:30;;;;;;;8.13;6.97;;;2.20;99.90;1.90;101174.00;;;;4783146;29;105416;-69
2023/01/27 10:20:17;;;;;;;12.63;7.00;;;2.20;99.90;1.90;101181.00;;;;4794879;29;88314;-68
2023/01/27 10:23:10;;;;;;;9.17;7.33;;;2.30;99.90;1.90;101180.00;;;;4784288;29;89058;-68
2023/01/27 10:25:52;;;;;;;10.40;7.03;;;2.40;99.90;1.90;101188.00;;;;4783897;29;88882;-70
2023/01/27 10:28:23;;;;;;;12.23;7.70;;;2.20;99.90;2.00;101192.00;;;;4797281;29;96514;-69
2023/01/27 10:31:01;;;;;;;9.83;7.37;;;2.20;99.90;2.00;101195.00;;;;4766709;29;88027;-68
2023/01/27 10:33:39;;;;;;;11.23;8.03;;;2.30;99.90;1.90;101201.00;;;;4786459;29;88868;-70
2023/01/27 10:36:27;;;;;;;7.87;5.87;;;2.20;99.90;1.90;101195.00;;;;4780361;29;89991;-69
2023/01/27 10:39:21;;;;;;;7.50;6.30;;;2.20;99.90;1.90;101199.00;;;;4782303;29;87909;-69
2023/01/27 10:42:01;;;;;;;10.70;7.80;;;2.30;99.90;1.80;101196.00;;;;4782822;29;102576;-69
2023/01/27 10:44:46;;;;;;;13.33;7.67;;;2.20;99.90;1.80;101205.00;;;;4782090;29;87932;-69
2023/01/27 10:47:27;;;;;;;10.63;7.50;;;2.20;99.90;1.80;101194.00;;;;4781882;29;110164;-69
2023/01/27 10:50:11;;;;;;;8.93;6.20;;;2.10;99.90;1.80;101201.00;;;;4782201;29;88051;-69
2023/01/27 10:53:05;;;;;;;13.17;7.47;;;2.10;99.90;1.70;101198.00;;;;4794606;29;102466;-69
2023/01/27 10:55:49;;;;;;;14.60;8.40;;;2.10;99.90;1.70;101206.00;;;;4784426;29;88040;-70
2023/01/27 10:58:47;;;;;;;13.10;7.20;;;1.90;99.90;1.70;101200.00;;;;4781097;29;106173;-70
2023/01/27 11:01:18;;;;;;;9.23;7.53;;;2.00;99.90;1.70;101199.00;;;;4781712;29;103773;-70
2023/01/27 11:03:56;;;;;;;9.83;6.70;;;2.10;99.90;1.70;101204.00;;;;4785003;29;87666;-70
2023/01/27 11:06:33;;;;;;;10.37;7.33;;;2.10;99.90;1.80;101193.00;;;;4782773;29;99397;-70
2023/01/27 11:09:12;;;;;;;7.33;5.63;;;2.10;99.90;1.80;101207.00;;;;4794460;29;110612;-70
2023/01/27 11:11:48;;;;;;;16.57;8.60;;;2.10;99.90;1.80;101203.00;;;;4784031;29;104595;-70
2023/01/27 11:14:24;;;;;;;9.57;6.17;;;2.10;99.90;1.80;101218.00;;;;4782533;29;88059;-70
2023/01/27 11:17:03;;;;;;;8.20;5.77;;;2.10;99.90;1.80;101206.00;;;;4763551;29;89763;-70
2023/01/27 11:19:48;;;;;;;9.03;6.80;;;2.10;99.90;1.90;101210.00;;;;4795866;29;88934;-70
2023/01/27 11:22:20;;;;;;;9.40;6.43;;;2.10;99.90;1.90;101214.00;;;;4779833;29;103217;-70
2023/01/27 11:25:01;;;;;;;9.47;6.00;;;2.10;99.90;1.90;101218.00;;;;4782375;29;89871;-69
2023/01/27 11:28:16;;;;;;;8.13;5.73;;;2.20;99.90;1.90;101207.00;;;;4763930;29;90070;-69
2023/01/27 11:30:54;;;;;;;8.67;6.40;;;2.30;99.90;1.90;101200.00;;;;4778723;29;87827;-68
2023/01/27 11:33:56;;;;;;;5.77;4.70;;;2.10;99.90;1.90;101208.00;;;;4780455;29;103779;-69
2023/01/27 11:36:26;;;;;;;6.90;5.10;;;2.20;99.90;2.00;101203.00;;;;4795035;29;87881;-68
2023/01/27 11:38:53;;;;;;;8.90;5.43;;;2.20;99.90;2.00;101204.00;;;;4779485;29;115811;-68